createdAt,value
2023-05-09T00:01:19.424Z,15.82
2023-05-09T00:03:49.917Z,17.00
2023-05-09T00:06:20.166Z,16.40
2023-05-09T00:08:51.469Z,15.77
2023-05-09T00:11:24.522Z,14.68
2023-05-09T00:13:55.722Z,15.38
2023-05-09T00:18:57.006Z,15.13
2023-05-09T00:21:27.407Z,13.90
2023-05-09T00:23:58.188Z,15.60
2023-05-09T00:26:28.934Z,15.30
2023-05-09T00:28:59.137Z,14.68
2023-05-09T00:31:29.531Z,15.65
2023-05-09T00:33:59.984Z,15.17
2023-05-09T00:36:30.257Z,15.53
2023-05-09T00:39:00.562Z,15.68
2023-05-09T00:41:30.841Z,15.75
2023-05-09T00:44:01.154Z,15.52
2023-05-09T00:46:31.595Z,16.65
2023-05-09T00:49:02.173Z,16.90
2023-05-09T00:51:33.180Z,16.77
2023-05-09T00:54:03.542Z,15.68
2023-05-09T00:56:34.230Z,15.45
2023-05-09T00:59:04.699Z,15.60
2023-05-09T01:01:35.255Z,17.25
2023-05-09T01:04:05.794Z,16.17
2023-05-09T01:06:55.058Z,16.03
2023-05-09T01:09:58.860Z,16.65
2023-05-09T01:12:31.740Z,16.38
2023-05-09T01:15:04.748Z,16.20
2023-05-09T01:17:39.763Z,16.88
2023-05-09T01:20:48.036Z,16.13
2023-05-09T01:23:18.332Z,15.95
2023-05-09T01:26:13.333Z,16.23
2023-05-09T01:29:20.304Z,16.65
2023-05-09T01:31:52.280Z,15.70
2023-05-09T01:34:25.447Z,15.30
2023-05-09T01:37:00.778Z,16.13
2023-05-09T01:39:34.251Z,16.23
2023-05-09T01:42:07.143Z,17.45
2023-05-09T01:44:41.796Z,17.20
2023-05-09T01:47:13.947Z,17.65
2023-05-09T01:49:45.600Z,18.92
2023-05-09T01:52:19.609Z,18.80
2023-05-09T01:54:50.898Z,18.33
2023-05-09T01:57:22.823Z,17.90
2023-05-09T01:59:55.092Z,17.45
2023-05-09T02:02:25.810Z,17.50
2023-05-09T02:04:59.944Z,18.52
2023-05-09T02:07:32.425Z,17.33
2023-05-09T02:10:05.041Z,17.52
2023-05-09T02:12:35.461Z,17.05
2023-05-09T02:15:07.184Z,17.75
2023-05-09T02:17:37.948Z,17.02
2023-05-09T02:20:09.134Z,17.10
2023-05-09T02:25:10.799Z,17.63
2023-05-09T02:27:43.033Z,16.55
2023-05-09T02:30:25.620Z,17.63
2023-05-09T02:33:06.083Z,16.17
2023-05-09T02:35:37.971Z,16.77
2023-05-09T02:38:09.468Z,16.63
2023-05-09T02:40:40.201Z,16.83
2023-05-09T02:43:10.706Z,17.13
2023-05-09T02:45:41.072Z,15.97
2023-05-09T02:48:11.774Z,17.83
2023-05-09T02:50:44.377Z,17.20
2023-05-09T02:53:14.936Z,16.38
2023-05-09T02:55:45.181Z,16.48
2023-05-09T02:58:15.585Z,16.20
2023-05-09T03:00:47.364Z,15.80
2023-05-09T03:03:20.143Z,15.68
2023-05-09T03:05:51.576Z,16.27
2023-05-09T03:08:21.732Z,16.38
2023-05-09T03:10:51.890Z,16.17
2023-05-09T03:13:22.385Z,16.27
2023-05-09T03:15:53.690Z,17.00
2023-05-09T03:18:24.032Z,15.63
2023-05-09T03:20:54.920Z,16.30
2023-05-09T03:23:25.926Z,16.40
2023-05-09T03:25:56.253Z,16.23
2023-05-09T03:28:27.865Z,15.67
2023-05-09T03:31:01.785Z,16.35
2023-05-09T03:33:33.070Z,16.02
2023-05-09T03:36:04.869Z,15.77
2023-05-09T03:38:35.220Z,16.07
2023-05-09T03:41:06.355Z,17.00
2023-05-09T03:46:06.475Z,15.15
2023-05-09T03:48:37.917Z,15.20
2023-05-09T03:51:09.447Z,15.55
2023-05-09T03:53:42.851Z,15.60
2023-05-09T03:56:13.282Z,15.40
2023-05-09T03:58:49.598Z,15.80
2023-05-09T04:01:20.495Z,16.98
2023-05-09T04:06:23.006Z,14.88
2023-05-09T04:08:53.660Z,17.07
2023-05-09T04:11:24.159Z,15.57
2023-05-09T04:13:54.771Z,15.20
2023-05-09T04:16:35.035Z,15.65
2023-05-09T04:19:05.497Z,15.97
2023-05-09T04:21:36.242Z,15.95
2023-05-09T04:24:09.200Z,15.32
2023-05-09T04:26:44.956Z,15.57
2023-05-09T04:29:18.958Z,14.38
2023-05-09T04:31:54.379Z,15.40
2023-05-09T04:34:31.875Z,15.32
2023-05-09T04:37:07.156Z,16.02
2023-05-09T04:39:37.893Z,15.10
2023-05-09T04:42:16.940Z,15.75
2023-05-09T04:44:47.522Z,14.47
2023-05-09T04:47:18.449Z,14.25
2023-05-09T04:49:48.818Z,16.30
2023-05-09T04:52:19.723Z,15.88
2023-05-09T04:54:50.073Z,13.83
2023-05-09T04:57:24.316Z,14.80
2023-05-09T05:00:00.143Z,15.13
2023-05-09T05:02:30.646Z,14.35
2023-05-09T05:05:11.051Z,15.63
2023-05-09T05:07:45.397Z,15.30
2023-05-09T05:10:21.801Z,15.32
2023-05-09T05:12:57.169Z,15.70
2023-05-09T05:15:29.355Z,16.07
2023-05-09T05:18:00.272Z,15.73
2023-05-09T05:20:35.172Z,17.85
2023-05-09T05:23:05.595Z,17.70
2023-05-09T05:25:35.999Z,16.67
2023-05-09T05:28:06.473Z,17.00
2023-05-09T05:30:36.938Z,18.70
2023-05-09T05:33:07.262Z,17.30
2023-05-09T05:35:38.011Z,17.73
2023-05-09T05:38:08.871Z,16.40
2023-05-09T05:40:40.117Z,17.90
2023-05-09T05:43:11.149Z,16.27
2023-05-09T05:45:42.286Z,16.00
2023-05-09T05:48:18.200Z,17.98
2023-05-09T05:50:50.151Z,17.45
2023-05-09T05:53:23.739Z,16.45
2023-05-09T05:58:24.713Z,16.95
2023-05-09T06:00:57.855Z,16.10
2023-05-09T06:03:28.488Z,16.25
2023-05-09T06:06:08.653Z,15.90
2023-05-09T06:08:38.924Z,16.58
2023-05-09T06:11:09.601Z,16.42
2023-05-09T06:13:41.290Z,15.93
2023-05-09T06:16:19.640Z,15.10
2023-05-09T06:18:55.932Z,16.52
2023-05-09T06:21:26.653Z,15.18
2023-05-09T06:24:09.803Z,15.37
2023-05-09T06:26:42.595Z,17.00
2023-05-09T06:29:13.237Z,15.40
2023-05-09T06:31:43.543Z,15.23
2023-05-09T06:34:13.823Z,14.47
2023-05-09T06:36:44.204Z,15.43
2023-05-09T06:39:14.496Z,15.03
2023-05-09T06:41:44.738Z,15.23
2023-05-09T06:44:22.845Z,15.25
2023-05-09T06:46:53.535Z,15.63
2023-05-09T06:49:23.724Z,16.52
2023-05-09T06:51:53.986Z,14.65
2023-05-09T06:54:24.413Z,15.15
2023-05-09T06:56:54.798Z,16.43
2023-05-09T06:59:25.141Z,15.13
2023-05-09T07:01:55.504Z,15.27
2023-05-09T07:04:27.837Z,16.20
2023-05-09T07:06:58.214Z,15.88
2023-05-09T07:09:30.967Z,16.17
2023-05-09T07:12:04.078Z,16.27
2023-05-09T07:14:34.344Z,14.90
2023-05-09T07:17:21.208Z,16.37
2023-05-09T07:19:54.050Z,16.33
2023-05-09T07:22:24.249Z,17.00
2023-05-09T07:24:54.475Z,16.07
2023-05-09T07:27:24.765Z,17.13
2023-05-09T07:29:55.205Z,15.52
2023-05-09T07:32:25.591Z,15.23
2023-05-09T07:34:55.865Z,15.80
2023-05-09T07:37:26.214Z,15.27
2023-05-09T07:39:56.585Z,16.10
2023-05-09T07:42:27.019Z,16.07
2023-05-09T07:44:57.293Z,16.10
2023-05-09T07:47:27.831Z,16.70
2023-05-09T07:49:58.179Z,15.18
2023-05-09T07:52:28.757Z,15.63
2023-05-09T07:54:59.006Z,17.17
2023-05-09T07:57:29.346Z,15.67
2023-05-09T07:59:59.716Z,14.00
2023-05-09T08:02:29.941Z,15.52
2023-05-09T08:05:00.223Z,14.53
2023-05-09T08:07:30.353Z,14.82
2023-05-09T08:10:00.525Z,14.40
2023-05-09T08:12:30.813Z,14.90
2023-05-09T08:15:01.062Z,15.82
2023-05-09T08:17:31.209Z,14.75
2023-05-09T08:20:01.711Z,14.77
2023-05-09T08:22:32.470Z,14.15
2023-05-09T08:25:02.753Z,14.68
2023-05-09T08:27:32.951Z,14.50
2023-05-09T08:30:03.933Z,14.43
2023-05-09T08:32:34.400Z,11.95
2023-05-09T08:35:04.639Z,13.20
2023-05-09T08:37:34.759Z,12.18
2023-05-09T08:40:07.357Z,11.75
2023-05-09T08:42:40.855Z,12.43
2023-05-09T08:45:18.666Z,11.80
2023-05-09T08:47:50.217Z,12.70
2023-05-09T08:50:20.667Z,12.40
2023-05-09T08:52:51.361Z,13.32
2023-05-09T08:55:22.192Z,10.27
2023-05-09T08:57:53.262Z,11.05
2023-05-09T09:00:24.338Z,9.63
2023-05-09T09:02:56.617Z,10.40
2023-05-09T09:05:40.760Z,9.82
2023-05-09T09:08:14.230Z,10.73
2023-05-09T09:10:49.359Z,10.55
2023-05-09T09:13:20.788Z,9.77
2023-05-09T09:15:51.673Z,9.75
2023-05-09T09:18:26.634Z,9.98
2023-05-09T09:21:02.457Z,10.02
2023-05-09T09:23:35.300Z,9.02
2023-05-09T09:26:09.904Z,9.73
2023-05-09T09:28:40.147Z,10.27
2023-05-09T09:31:27.046Z,9.95
2023-05-09T09:34:05.045Z,9.90
2023-05-09T09:36:35.540Z,9.48
2023-05-09T09:39:08.183Z,10.55
2023-05-09T09:41:41.597Z,9.98
2023-05-09T09:44:19.422Z,10.73
2023-05-09T09:46:54.396Z,10.35
2023-05-09T09:49:29.203Z,10.30
2023-05-09T09:52:01.482Z,9.73
2023-05-09T09:54:32.045Z,10.15
2023-05-09T09:57:02.648Z,10.80
2023-05-09T09:59:34.492Z,10.13
2023-05-09T10:02:07.841Z,10.95
2023-05-09T10:04:41.440Z,10.13
2023-05-09T10:07:15.028Z,9.57
2023-05-09T10:09:46.247Z,10.07
2023-05-09T10:12:20.747Z,10.23
2023-05-09T10:14:52.029Z,9.93
2023-05-09T10:19:54.120Z,9.90
2023-05-09T10:22:25.102Z,8.90
2023-05-09T10:27:31.627Z,9.43
2023-05-09T10:30:13.460Z,9.02
2023-05-09T10:32:57.128Z,8.88
2023-05-09T10:35:39.094Z,8.80
2023-05-09T10:38:10.313Z,9.10
2023-05-09T10:40:40.863Z,8.52
2023-05-09T10:43:11.163Z,10.15
2023-05-09T10:45:44.885Z,8.57
2023-05-09T10:48:16.297Z,9.02
2023-05-09T10:50:48.940Z,8.88
2023-05-09T10:53:24.022Z,8.88
2023-05-09T10:56:01.393Z,9.43
2023-05-09T10:58:32.700Z,8.90
2023-05-09T11:01:04.549Z,7.88
2023-05-09T11:04:00.533Z,8.80
2023-05-09T11:06:43.080Z,8.93
2023-05-09T11:09:29.585Z,8.40
2023-05-09T11:12:10.744Z,8.10
2023-05-09T11:14:53.013Z,9.10
2023-05-09T11:17:27.045Z,9.18
2023-05-09T11:20:08.183Z,8.75
2023-05-09T11:25:19.097Z,8.10
2023-05-09T11:27:54.377Z,8.60
2023-05-09T11:30:24.642Z,8.85
2023-05-09T11:33:01.241Z,8.10
2023-05-09T11:35:31.728Z,8.90
2023-05-09T11:38:04.681Z,8.52
2023-05-09T11:40:36.442Z,7.43
2023-05-09T11:43:07.130Z,8.00
2023-05-09T11:45:37.512Z,8.13
2023-05-09T11:48:13.397Z,7.80
2023-05-09T11:50:44.299Z,8.20
2023-05-09T11:55:45.401Z,8.30
2023-05-09T11:58:16.069Z,8.07
2023-05-09T12:00:49.759Z,7.55
2023-05-09T12:03:20.548Z,8.18
2023-05-09T12:05:51.696Z,8.25
2023-05-09T12:10:52.076Z,8.10
2023-05-09T12:13:22.439Z,8.00
2023-05-09T12:15:53.217Z,8.45
2023-05-09T12:18:24.549Z,7.75
2023-05-09T12:23:25.704Z,7.78
2023-05-09T12:25:57.679Z,8.43
2023-05-09T12:28:28.857Z,9.38
2023-05-09T12:33:29.837Z,8.07
2023-05-09T12:36:06.134Z,8.38
2023-05-09T12:38:36.900Z,9.15
2023-05-09T13:10:41.884Z,9.27
2023-05-09T13:13:19.086Z,9.47
2023-05-09T13:15:49.827Z,9.07
2023-05-09T13:18:20.299Z,8.98
2023-05-09T13:20:51.782Z,8.40
2023-05-09T13:23:22.151Z,8.80
2023-05-09T13:25:52.375Z,8.43
2023-05-09T13:28:22.762Z,8.05
2023-05-09T13:30:53.289Z,9.10
2023-05-09T13:33:26.579Z,8.47
2023-05-09T13:35:57.293Z,8.40
2023-05-09T13:38:28.262Z,7.23
2023-05-09T13:40:58.665Z,8.18
2023-05-09T13:43:30.884Z,7.50
2023-05-09T13:46:01.368Z,7.50
2023-05-09T13:48:31.985Z,7.70
2023-05-09T13:51:03.660Z,7.50
2023-05-09T13:53:33.834Z,8.18
2023-05-09T13:56:04.452Z,8.38
2023-05-09T13:58:34.761Z,8.02
2023-05-09T14:01:05.401Z,7.72
2023-05-09T14:03:35.850Z,7.93
2023-05-09T14:06:06.700Z,8.23
2023-05-09T14:08:36.991Z,7.68
2023-05-09T14:11:07.200Z,7.72
2023-05-09T14:13:37.574Z,8.33
2023-05-09T14:16:08.733Z,7.80
2023-05-09T14:21:09.790Z,8.45
2023-05-09T14:23:40.039Z,8.45
2023-05-09T14:26:10.855Z,7.63
2023-05-09T14:28:41.277Z,7.65
2023-05-09T14:31:11.636Z,8.20
2023-05-09T14:33:41.955Z,8.03
2023-05-09T14:36:12.408Z,8.13
2023-05-09T14:38:43.553Z,8.00
2023-05-09T14:41:14.195Z,7.78
2023-05-09T14:43:44.476Z,8.17
2023-05-09T14:46:14.681Z,9.00
2023-05-09T14:48:44.830Z,8.80
2023-05-09T14:51:15.277Z,9.48
2023-05-09T14:53:45.555Z,8.53
2023-05-09T14:56:15.845Z,9.52
2023-05-09T14:58:46.157Z,8.77
2023-05-09T15:01:16.573Z,8.73
2023-05-09T15:03:47.022Z,7.70
2023-05-09T15:06:17.589Z,7.17
2023-05-09T15:08:48.970Z,7.37
2023-05-09T15:11:19.261Z,7.03
2023-05-09T15:13:50.539Z,7.47
2023-05-09T15:16:20.922Z,7.22
2023-05-09T15:18:51.124Z,7.50
2023-05-09T15:21:21.718Z,8.40
2023-05-09T15:23:51.904Z,7.90
2023-05-09T15:26:22.386Z,8.75
2023-05-09T15:28:52.728Z,7.77
2023-05-09T15:31:24.179Z,7.90
2023-05-09T15:33:54.664Z,6.95
2023-05-09T15:36:24.866Z,7.57
2023-05-09T15:38:55.268Z,8.32
2023-05-09T15:41:25.587Z,8.10
2023-05-09T15:43:55.829Z,8.37
2023-05-09T15:46:26.462Z,9.95
2023-05-09T15:48:56.824Z,9.85
2023-05-09T15:51:27.471Z,8.88
2023-05-09T15:53:57.865Z,8.10
2023-05-09T15:56:28.073Z,8.77
2023-05-09T15:58:58.517Z,8.13
2023-05-09T16:01:29.026Z,8.43
2023-05-09T16:03:59.424Z,8.20
2023-05-09T16:06:31.036Z,8.30
2023-05-09T16:09:01.353Z,7.32
2023-05-09T16:11:31.569Z,6.83
2023-05-09T16:14:02.212Z,7.88
2023-05-09T16:16:32.661Z,7.07
2023-05-09T16:19:02.979Z,5.97
2023-05-09T16:21:35.304Z,5.73
2023-05-09T16:24:07.238Z,5.38
2023-05-09T16:26:39.082Z,5.22
2023-05-09T16:29:09.476Z,4.72
2023-05-09T16:31:39.991Z,4.10
2023-05-09T16:34:10.523Z,3.70
2023-05-09T16:36:41.830Z,4.30
2023-05-09T16:41:42.556Z,3.95
2023-05-09T16:44:12.810Z,4.32
2023-05-09T16:46:43.474Z,4.25
2023-05-09T16:49:14.546Z,5.23
2023-05-09T16:54:14.831Z,5.15
2023-05-09T16:56:44.921Z,5.75
2023-05-09T16:59:15.724Z,5.40
2023-05-09T17:01:46.186Z,5.82
2023-05-09T17:04:16.826Z,5.93
2023-05-09T17:06:47.040Z,6.27
2023-05-09T17:09:17.416Z,5.85
2023-05-09T17:11:47.700Z,6.43
2023-05-09T17:14:18.008Z,6.68
2023-05-09T17:16:48.400Z,6.22
2023-05-09T17:19:19.198Z,6.80
2023-05-09T17:21:49.425Z,7.97
2023-05-09T17:24:19.627Z,6.88
2023-05-09T17:26:49.854Z,9.30
2023-05-09T17:29:20.154Z,9.10
2023-05-09T17:31:50.456Z,7.72
2023-05-09T17:34:20.829Z,7.77
2023-05-09T17:36:50.903Z,7.85
2023-05-09T17:39:22.622Z,7.05
2023-05-09T17:41:52.920Z,7.05
2023-05-09T17:44:23.379Z,7.00
2023-05-09T17:46:53.734Z,7.20
2023-05-09T17:49:23.961Z,7.50
2023-05-09T17:51:54.917Z,7.13
2023-05-09T17:54:25.367Z,7.28
2023-05-09T17:56:58.766Z,7.90
2023-05-09T17:59:29.367Z,7.90
2023-05-09T18:01:59.955Z,7.85
2023-05-09T18:04:32.700Z,7.90
2023-05-09T18:07:03.690Z,7.88
2023-05-09T18:09:34.250Z,8.77
2023-05-09T18:12:04.610Z,8.38
2023-05-09T18:14:34.881Z,8.95
2023-05-09T18:17:05.295Z,8.57
2023-05-09T18:19:36.398Z,8.85
2023-05-09T18:24:36.593Z,8.98
2023-05-09T18:27:06.971Z,8.52
2023-05-09T18:29:37.324Z,8.53
2023-05-09T18:32:09.187Z,8.65
2023-05-09T18:34:39.656Z,8.82
2023-05-09T18:37:10.045Z,8.90
2023-05-09T18:39:40.322Z,8.73
2023-05-09T18:42:10.627Z,8.18
2023-05-09T18:44:41.167Z,8.60
2023-05-09T18:47:11.529Z,7.97
2023-05-09T18:49:41.811Z,9.07
2023-05-09T18:52:13.272Z,8.55
2023-05-09T18:54:44.534Z,9.57
2023-05-09T18:57:14.860Z,9.10
2023-05-09T18:59:45.105Z,9.75
2023-05-09T19:02:15.314Z,9.40
2023-05-09T19:04:48.501Z,8.75
2023-05-09T19:07:18.862Z,9.18
2023-05-09T19:09:49.093Z,8.83
2023-05-09T19:12:20.091Z,8.55
2023-05-09T19:14:50.617Z,8.82
2023-05-09T19:17:21.007Z,9.47
2023-05-09T19:19:51.679Z,9.15
2023-05-09T19:22:22.680Z,8.85
2023-05-09T19:24:55.698Z,8.85
2023-05-09T19:27:26.135Z,8.60
2023-05-09T19:29:56.484Z,8.77
2023-05-09T19:32:26.803Z,7.67
2023-05-09T19:34:57.026Z,7.95
2023-05-09T19:37:27.289Z,7.80
2023-05-09T19:39:57.448Z,7.90
2023-05-09T19:42:27.609Z,7.80
2023-05-09T19:44:57.904Z,8.10
2023-05-09T19:47:28.367Z,7.15
2023-05-09T19:49:58.670Z,8.20
2023-05-09T19:52:28.970Z,8.05
2023-05-09T19:54:59.327Z,8.20
2023-05-09T19:57:29.460Z,8.27
2023-05-09T20:00:00.661Z,8.07
2023-05-09T20:02:31.056Z,8.30
2023-05-09T20:05:01.883Z,8.20
2023-05-09T20:07:32.247Z,8.18
2023-05-09T20:10:02.576Z,8.30
2023-05-09T20:12:32.861Z,8.43
2023-05-09T20:15:04.129Z,8.00
2023-05-09T20:17:34.663Z,9.25
2023-05-09T20:20:05.010Z,9.05
2023-05-09T20:22:35.347Z,8.25
2023-05-09T20:25:05.645Z,8.32
2023-05-09T20:27:37.909Z,8.95
2023-05-09T20:30:08.774Z,9.45
2023-05-09T20:32:39.608Z,9.63
2023-05-09T20:35:10.846Z,9.75
2023-05-09T20:37:41.015Z,9.20
2023-05-09T20:40:11.694Z,9.57
2023-05-09T20:42:41.993Z,10.00
2023-05-09T20:45:12.694Z,9.70
2023-05-09T20:47:43.679Z,10.32
2023-05-09T20:50:14.401Z,10.50
2023-05-09T20:52:44.855Z,10.25
2023-05-09T20:55:15.051Z,9.48
2023-05-09T20:57:45.433Z,10.97
2023-05-09T21:00:16.466Z,11.68
2023-05-09T21:05:16.922Z,10.88
2023-05-09T21:07:47.011Z,10.38
2023-05-09T21:10:20.893Z,9.50
2023-05-09T21:12:51.508Z,9.75
2023-05-09T21:15:22.867Z,9.60
2023-05-09T21:17:53.358Z,9.32
2023-05-09T21:20:23.904Z,9.87
2023-05-09T21:22:54.399Z,9.40
2023-05-09T21:25:24.729Z,9.13
2023-05-09T21:27:54.951Z,8.93
2023-05-09T21:30:25.252Z,8.80
2023-05-09T21:32:55.741Z,8.55
2023-05-09T21:35:26.119Z,9.03
2023-05-09T21:37:56.247Z,9.73
2023-05-09T21:40:26.597Z,10.88
2023-05-09T21:42:56.976Z,10.43
2023-05-09T21:45:27.271Z,9.95
2023-05-09T21:47:57.677Z,9.05
2023-05-09T21:50:28.692Z,9.17
2023-05-09T21:52:58.922Z,9.73
2023-05-09T21:55:29.283Z,9.05
2023-05-09T21:57:59.760Z,8.67
2023-05-09T22:00:30.025Z,9.82
2023-05-09T22:03:01.401Z,8.38
2023-05-09T22:05:31.800Z,8.63
2023-05-09T22:08:02.055Z,9.15
2023-05-09T22:10:32.398Z,8.90
2023-05-09T22:13:02.806Z,10.23
2023-05-09T22:15:33.363Z,9.70
2023-05-09T22:18:03.681Z,8.97
2023-05-09T22:20:34.038Z,8.87
2023-05-09T22:23:04.494Z,8.95
2023-05-09T22:25:35.021Z,9.10
2023-05-09T22:28:05.193Z,9.60
2023-05-09T22:30:35.407Z,9.07
2023-05-09T22:33:05.881Z,9.70
2023-05-09T22:35:36.265Z,10.07
2023-05-09T22:39:38.827Z,8.57
2023-05-09T22:42:09.210Z,9.48
2023-05-09T22:44:39.479Z,9.50
2023-05-09T22:47:12.810Z,9.57
2023-05-09T22:49:44.581Z,10.02
2023-05-09T22:52:16.348Z,10.52
2023-05-09T22:54:46.963Z,11.30
2023-05-09T22:57:20.159Z,11.10
2023-05-09T22:59:50.494Z,9.70
2023-05-09T23:02:21.002Z,10.35
2023-05-09T23:04:51.201Z,9.07
2023-05-09T23:07:21.456Z,8.90
2023-05-09T23:09:52.171Z,8.70
2023-05-09T23:12:22.450Z,7.72
2023-05-09T23:14:53.052Z,8.35
2023-05-09T23:17:23.923Z,9.43
2023-05-09T23:19:54.336Z,9.55
2023-05-09T23:22:24.655Z,9.68
2023-05-09T23:24:54.911Z,10.00
2023-05-09T23:27:25.232Z,9.57
2023-05-09T23:29:55.503Z,9.95
2023-05-09T23:32:26.040Z,9.77
2023-05-09T23:34:56.382Z,11.13
2023-05-09T23:37:26.650Z,9.95
2023-05-09T23:39:57.186Z,10.80
2023-05-09T23:42:27.544Z,10.60
2023-05-09T23:44:57.724Z,9.32
2023-05-09T23:47:28.060Z,9.65
2023-05-09T23:49:58.433Z,9.95
2023-05-09T23:52:28.678Z,9.13
2023-05-09T23:54:58.857Z,9.05
2023-05-09T23:57:28.928Z,9.10
2023-05-09T23:59:59.023Z,8.88
